createdAt,value
2023-12-20T00:03:00.740Z,1.40
2023-12-20T00:06:04.593Z,1.33
2023-12-20T00:09:09.737Z,1.27
2023-12-20T00:12:13.522Z,1.42
2023-12-20T00:15:17.097Z,1.05
2023-12-20T00:18:21.108Z,1.02
2023-12-20T00:21:25.053Z,1.35
2023-12-20T00:24:30.499Z,1.35
2023-12-20T00:27:34.080Z,1.40
2023-12-20T00:30:38.218Z,1.40
2023-12-20T00:33:44.950Z,1.17
2023-12-20T00:36:49.051Z,1.45
2023-12-20T00:40:03.175Z,0.88
2023-12-20T00:43:07.323Z,1.05
2023-12-20T00:46:11.397Z,1.40
2023-12-20T00:49:15.068Z,1.23
2023-12-20T00:52:19.188Z,1.30
2023-12-20T00:55:24.398Z,1.00
2023-12-20T00:58:31.446Z,1.15
2023-12-20T01:01:35.352Z,1.17
2023-12-20T01:04:39.401Z,1.02
2023-12-20T01:07:44.726Z,1.05
2023-12-20T01:10:50.042Z,1.17
2023-12-20T01:13:53.524Z,1.20
2023-12-20T01:17:00.032Z,0.85
2023-12-20T01:20:03.988Z,0.93
2023-12-20T01:23:07.655Z,1.23
2023-12-20T01:26:14.152Z,0.93
2023-12-20T01:29:17.792Z,1.27
2023-12-20T01:32:21.565Z,1.02
2023-12-20T01:35:25.364Z,0.88
2023-12-20T01:38:30.012Z,1.63
2023-12-20T01:41:35.400Z,1.20
2023-12-20T01:44:39.122Z,1.27
2023-12-20T01:47:43.118Z,1.50
2023-12-20T01:50:48.376Z,1.17
2023-12-20T01:53:52.515Z,1.02
2023-12-20T01:56:58.169Z,1.40
2023-12-20T02:00:02.198Z,0.88
2023-12-20T02:03:08.800Z,1.58
2023-12-20T02:06:12.629Z,1.88
2023-12-20T02:09:16.577Z,1.27
2023-12-20T02:12:21.698Z,1.38
2023-12-20T02:15:25.222Z,1.20
2023-12-20T02:18:38.006Z,1.17
2023-12-20T02:21:43.444Z,1.02
2023-12-20T02:24:47.088Z,1.00
2023-12-20T02:27:51.317Z,1.42
2023-12-20T02:30:55.146Z,0.88
2023-12-20T02:33:59.111Z,1.20
2023-12-20T02:37:06.282Z,1.20
2023-12-20T02:40:10.370Z,1.70
2023-12-20T02:43:14.331Z,1.48
2023-12-20T02:46:18.933Z,1.52
2023-12-20T02:49:22.930Z,1.30
2023-12-20T02:52:28.272Z,1.88
2023-12-20T02:55:32.327Z,1.08
2023-12-20T02:58:36.374Z,1.10
2023-12-20T03:01:44.668Z,1.10
2023-12-20T03:04:48.498Z,0.90
2023-12-20T03:07:53.876Z,1.30
2023-12-20T03:10:58.020Z,1.13
2023-12-20T03:14:01.752Z,1.27
2023-12-20T03:17:05.883Z,1.13
2023-12-20T03:20:13.123Z,2.08
2023-12-20T03:23:25.744Z,1.08
2023-12-20T03:26:32.357Z,1.15
2023-12-20T03:29:36.198Z,1.17
2023-12-20T03:32:40.374Z,1.33
2023-12-20T03:35:43.954Z,1.08
2023-12-20T03:38:49.118Z,1.15
2023-12-20T03:41:52.734Z,1.10
2023-12-20T03:44:56.375Z,1.38
2023-12-20T03:47:59.917Z,0.93
2023-12-20T03:51:03.831Z,1.30
2023-12-20T03:54:08.758Z,1.00
2023-12-20T03:57:15.760Z,1.38
2023-12-20T04:00:19.453Z,1.80
2023-12-20T04:03:22.945Z,1.23
2023-12-20T04:06:26.617Z,1.33
2023-12-20T04:09:31.828Z,1.10
2023-12-20T04:12:35.703Z,1.20
2023-12-20T04:15:39.718Z,1.58
2023-12-20T04:18:43.332Z,1.30
2023-12-20T04:21:47.616Z,1.60
2023-12-20T04:24:53.178Z,1.25
2023-12-20T04:27:56.914Z,1.30
2023-12-20T04:31:00.832Z,1.55
2023-12-20T04:34:06.419Z,1.10
2023-12-20T04:37:18.293Z,1.45
2023-12-20T04:40:23.928Z,1.38
2023-12-20T04:43:28.009Z,1.50
2023-12-20T04:46:31.863Z,1.20
2023-12-20T04:49:36.421Z,1.33
2023-12-20T04:52:40.361Z,1.48
2023-12-20T04:55:45.228Z,1.17
2023-12-20T04:58:49.710Z,1.08
2023-12-20T05:01:56.510Z,1.60
2023-12-20T05:05:01.847Z,1.50
2023-12-20T05:08:06.853Z,1.83
2023-12-20T05:11:11.843Z,1.50
2023-12-20T05:14:15.568Z,1.70
2023-12-20T05:17:19.565Z,1.42
2023-12-20T05:20:24.731Z,1.63
2023-12-20T05:23:28.349Z,1.30
2023-12-20T05:26:33.654Z,1.55
2023-12-20T05:29:37.166Z,2.00
2023-12-20T05:32:41.181Z,1.40
2023-12-20T05:35:45.610Z,1.55
2023-12-20T05:38:49.211Z,1.38
2023-12-20T05:41:54.134Z,1.88
2023-12-20T05:44:59.277Z,1.80
2023-12-20T05:48:03.268Z,1.73
2023-12-20T05:51:07.340Z,1.73
2023-12-20T05:54:11.023Z,1.80
2023-12-20T05:57:16.173Z,2.13
2023-12-20T06:00:20.161Z,1.88
2023-12-20T06:03:24.615Z,1.95
2023-12-20T06:06:31.725Z,2.35
2023-12-20T06:09:35.608Z,2.60
2023-12-20T06:12:42.936Z,2.40
2023-12-20T06:15:47.269Z,2.10
2023-12-20T06:18:50.854Z,2.17
2023-12-20T06:21:54.658Z,1.80
2023-12-20T06:24:58.378Z,2.10
2023-12-20T06:28:03.834Z,1.90
2023-12-20T06:31:08.504Z,1.60
2023-12-20T06:34:12.341Z,1.95
2023-12-20T06:37:16.803Z,1.65
2023-12-20T06:40:21.140Z,1.55
2023-12-20T06:43:37.728Z,1.45
2023-12-20T06:46:50.424Z,1.38
2023-12-20T06:49:54.308Z,1.98
2023-12-20T06:53:00.229Z,1.50
2023-12-20T06:56:04.015Z,1.58
2023-12-20T06:59:09.345Z,1.92
2023-12-20T07:02:15.229Z,1.85
2023-12-20T07:05:21.012Z,1.23
2023-12-20T07:08:24.837Z,1.77
2023-12-20T07:11:28.663Z,1.35
2023-12-20T07:14:33.773Z,1.85
2023-12-20T07:17:38.007Z,2.13
2023-12-20T07:20:41.880Z,1.45
2023-12-20T07:23:45.552Z,1.58
2023-12-20T07:26:49.554Z,1.50
2023-12-20T07:29:57.475Z,1.40
2023-12-20T07:33:05.042Z,2.10
2023-12-20T07:36:10.071Z,1.48
2023-12-20T07:39:13.859Z,1.73
2023-12-20T07:42:17.939Z,2.00
2023-12-20T07:45:23.631Z,1.65
2023-12-20T07:48:27.575Z,1.45
2023-12-20T07:51:31.335Z,1.70
2023-12-20T07:54:34.840Z,1.67
2023-12-20T07:57:38.819Z,1.60
2023-12-20T08:00:45.077Z,1.88
2023-12-20T08:03:48.673Z,2.05
2023-12-20T08:06:52.335Z,1.40
2023-12-20T08:09:58.111Z,1.80
2023-12-20T08:13:02.233Z,2.17
2023-12-20T08:16:10.043Z,2.13
2023-12-20T08:19:13.792Z,2.00
2023-12-20T08:22:17.812Z,1.80
2023-12-20T08:25:21.398Z,2.25
2023-12-20T08:28:25.255Z,1.90
2023-12-20T08:31:30.646Z,1.67
2023-12-20T08:34:36.407Z,2.28
2023-12-20T08:37:44.057Z,2.08
2023-12-20T08:40:50.662Z,1.75
2023-12-20T08:43:55.121Z,1.80
2023-12-20T08:46:59.949Z,1.90
2023-12-20T08:50:04.064Z,2.17
2023-12-20T08:53:10.504Z,2.15
2023-12-20T08:56:19.294Z,1.80
2023-12-20T08:59:23.358Z,2.50
2023-12-20T09:02:28.489Z,1.67
2023-12-20T09:05:32.768Z,2.00
2023-12-20T09:08:36.775Z,2.83
2023-12-20T09:11:40.620Z,2.28
2023-12-20T09:14:45.348Z,2.63
2023-12-20T09:17:51.334Z,1.75
2023-12-20T09:20:55.354Z,2.05
2023-12-20T09:23:58.968Z,1.95
2023-12-20T09:27:02.917Z,1.42
2023-12-20T09:30:08.066Z,1.42
2023-12-20T09:33:15.432Z,2.72
2023-12-20T09:36:19.222Z,1.58
2023-12-20T09:39:24.480Z,1.20
2023-12-20T09:42:32.647Z,1.27
2023-12-20T09:45:37.477Z,1.63
2023-12-20T09:48:44.205Z,1.20
2023-12-20T09:51:49.151Z,1.02
2023-12-20T09:54:55.269Z,0.60
2023-12-20T09:57:59.999Z,0.63
2023-12-20T10:01:04.636Z,0.77
2023-12-20T10:04:26.167Z,0.60
2023-12-20T10:07:33.917Z,0.90
2023-12-20T10:10:42.505Z,0.55
2023-12-20T10:13:51.442Z,0.57
2023-12-20T10:17:00.207Z,0.73
2023-12-20T10:20:10.736Z,0.85
2023-12-20T10:23:15.017Z,0.57
2023-12-20T10:26:24.972Z,0.60
2023-12-20T10:29:28.840Z,0.70
2023-12-20T10:32:32.777Z,0.63
2023-12-20T10:35:38.130Z,0.70
2023-12-20T10:38:45.714Z,0.95
2023-12-20T10:41:50.342Z,0.70
2023-12-20T10:44:54.984Z,0.60
2023-12-20T10:48:00.728Z,0.40
2023-12-20T10:51:06.907Z,0.50
2023-12-20T10:54:10.749Z,0.52
2023-12-20T10:57:14.737Z,0.57
2023-12-20T11:00:19.088Z,0.57
2023-12-20T11:03:26.017Z,0.80
2023-12-20T11:06:35.878Z,0.40
2023-12-20T11:09:42.955Z,0.40
2023-12-20T11:12:51.460Z,0.80
2023-12-20T11:15:55.356Z,0.88
2023-12-20T11:18:58.993Z,0.50
2023-12-20T11:22:06.719Z,0.50
2023-12-20T11:25:11.496Z,0.68
2023-12-20T11:28:15.519Z,0.52
2023-12-20T11:31:20.281Z,0.93
2023-12-20T11:34:24.362Z,0.60
2023-12-20T11:37:34.283Z,0.85
2023-12-20T11:40:38.994Z,1.05
2023-12-20T11:43:42.992Z,0.90
2023-12-20T11:46:47.184Z,0.90
2023-12-20T11:49:52.690Z,0.88
2023-12-20T11:52:58.869Z,0.50
2023-12-20T11:56:04.348Z,0.35
2023-12-20T11:59:16.430Z,1.08
2023-12-20T12:02:26.522Z,0.80
2023-12-20T12:05:30.631Z,0.93
2023-12-20T12:08:39.135Z,0.50
2023-12-20T12:11:42.961Z,0.50
2023-12-20T12:14:47.166Z,0.50
2023-12-20T12:17:58.922Z,0.98
2023-12-20T12:21:10.566Z,0.88
2023-12-20T12:24:23.352Z,0.40
2023-12-20T12:27:27.229Z,0.70
2023-12-20T12:30:35.621Z,0.80
2023-12-20T12:33:44.826Z,0.95
2023-12-20T12:36:49.705Z,1.10
2023-12-20T12:39:56.441Z,1.08
2023-12-20T12:43:00.971Z,1.23
2023-12-20T12:46:05.805Z,1.58
2023-12-20T12:49:09.738Z,0.98
2023-12-20T12:52:15.621Z,1.60
2023-12-20T12:55:20.901Z,0.95
2023-12-20T12:58:26.541Z,1.20
2023-12-20T13:01:30.319Z,1.13
2023-12-20T13:04:34.823Z,1.85
2023-12-20T13:07:40.226Z,1.45
2023-12-20T13:10:45.690Z,1.30
2023-12-20T13:13:49.815Z,1.35
2023-12-20T13:16:53.334Z,1.10
2023-12-20T13:19:57.013Z,1.65
2023-12-20T13:23:12.714Z,1.55
2023-12-20T13:26:18.914Z,1.08
2023-12-20T13:29:22.562Z,1.40
2023-12-20T13:32:26.254Z,1.30
2023-12-20T13:35:30.611Z,1.85
2023-12-20T13:38:34.976Z,1.48
2023-12-20T13:41:39.841Z,1.60
2023-12-20T13:44:43.778Z,1.60
2023-12-20T13:47:47.914Z,1.55
2023-12-20T13:50:51.607Z,1.05
2023-12-20T13:53:55.190Z,1.45
2023-12-20T13:57:26.127Z,1.67
2023-12-20T14:00:37.882Z,1.60
2023-12-20T14:03:42.205Z,1.73
2023-12-20T14:06:46.322Z,1.63
2023-12-20T14:09:50.424Z,1.95
2023-12-20T14:12:59.597Z,1.92
2023-12-20T14:16:07.424Z,1.38
2023-12-20T14:19:11.306Z,1.40
2023-12-20T14:22:18.707Z,1.70
2023-12-20T14:25:24.566Z,2.08
2023-12-20T14:28:30.237Z,1.35
2023-12-20T14:31:35.311Z,2.08
2023-12-20T14:34:39.462Z,1.92
2023-12-20T14:37:43.883Z,2.00
2023-12-20T14:40:47.787Z,1.63
2023-12-20T14:43:54.425Z,1.80
2023-12-20T14:47:07.321Z,2.15
2023-12-20T14:50:11.784Z,2.42
2023-12-20T14:53:22.743Z,1.75
2023-12-20T14:56:29.442Z,2.15
2023-12-20T14:59:37.903Z,2.30
2023-12-20T15:02:43.058Z,1.70
2023-12-20T15:05:49.255Z,2.15
2023-12-20T15:08:53.216Z,1.98
2023-12-20T15:12:00.971Z,2.55
2023-12-20T15:15:07.891Z,2.75
2023-12-20T15:18:11.785Z,2.83
2023-12-20T15:21:15.898Z,2.30
2023-12-20T15:24:21.017Z,2.13
2023-12-20T15:27:25.730Z,1.65
2023-12-20T15:30:31.365Z,1.88
2023-12-20T15:33:35.749Z,1.65
2023-12-20T15:36:39.993Z,2.40
2023-12-20T15:39:45.033Z,2.22
2023-12-20T15:43:01.449Z,2.30
2023-12-20T15:46:06.873Z,2.13
2023-12-20T15:49:12.343Z,2.10
2023-12-20T15:52:16.082Z,2.58
2023-12-20T15:55:20.388Z,1.80
2023-12-20T15:58:24.308Z,2.03
2023-12-20T16:01:29.758Z,1.80
2023-12-20T16:04:33.632Z,1.98
2023-12-20T16:07:37.352Z,2.08
2023-12-20T16:10:41.943Z,2.08
2023-12-20T16:13:45.807Z,2.40
2023-12-20T16:16:54.305Z,2.05
2023-12-20T16:19:58.340Z,2.03
2023-12-20T16:23:02.008Z,2.55
2023-12-20T16:26:08.504Z,2.17
2023-12-20T16:29:16.065Z,2.33
2023-12-20T16:32:31.477Z,1.92
2023-12-20T16:35:35.345Z,2.20
2023-12-20T16:38:40.375Z,1.58
2023-12-20T16:41:52.695Z,1.90
2023-12-20T16:44:56.818Z,2.42
2023-12-20T16:48:02.033Z,1.85
2023-12-20T16:51:06.050Z,2.05
2023-12-20T16:54:09.830Z,2.28
2023-12-20T16:57:15.130Z,1.95
2023-12-20T17:00:19.373Z,2.15
2023-12-20T17:03:28.114Z,1.85
2023-12-20T17:06:32.019Z,1.75
2023-12-20T17:09:36.083Z,1.45
2023-12-20T17:12:39.679Z,2.28
2023-12-20T17:15:43.364Z,1.48
2023-12-20T17:18:51.428Z,1.52
2023-12-20T17:21:55.580Z,1.70
2023-12-20T17:24:59.150Z,1.55
2023-12-20T17:28:03.090Z,1.73
2023-12-20T17:31:07.291Z,1.50
2023-12-20T17:34:13.917Z,1.63
2023-12-20T17:37:17.932Z,0.90
2023-12-20T17:40:21.992Z,1.35
2023-12-20T17:43:26.332Z,0.98
2023-12-20T17:46:31.202Z,1.20
2023-12-20T17:49:36.550Z,1.08
2023-12-20T17:52:41.187Z,1.05
2023-12-20T17:55:45.286Z,1.15
2023-12-20T17:58:49.126Z,1.17
2023-12-20T18:01:54.021Z,0.93
2023-12-20T18:04:59.405Z,1.13
2023-12-20T18:08:03.200Z,1.52
2023-12-20T18:11:07.038Z,1.45
2023-12-20T18:14:11.718Z,1.38
2023-12-20T18:17:18.043Z,1.67
2023-12-20T18:25:22.464Z,2.63
2023-12-20T18:28:26.284Z,2.33
2023-12-20T18:31:34.013Z,1.90
2023-12-20T18:34:37.798Z,1.98
2023-12-20T18:37:41.913Z,1.77
2023-12-20T18:40:49.403Z,1.70
2023-12-20T18:43:53.618Z,1.73
2023-12-20T18:46:57.236Z,1.65
2023-12-20T18:50:03.995Z,1.80
2023-12-20T18:53:08.651Z,2.00
2023-12-20T18:56:15.296Z,1.23
2023-12-20T18:59:21.042Z,1.13
2023-12-20T19:02:24.861Z,1.50
2023-12-20T19:05:29.365Z,1.70
2023-12-20T19:08:32.991Z,1.33
2023-12-20T19:11:39.788Z,1.48
2023-12-20T19:14:47.643Z,1.40
2023-12-20T19:17:51.472Z,1.70
2023-12-20T19:20:55.116Z,1.85
2023-12-20T19:23:58.658Z,2.00
2023-12-20T19:27:06.346Z,1.65
2023-12-20T19:30:10.714Z,1.38
2023-12-20T19:33:14.544Z,1.17
2023-12-20T19:36:19.476Z,1.48
2023-12-20T19:39:23.118Z,1.50
2023-12-20T19:42:28.321Z,1.23
2023-12-20T19:45:32.147Z,1.23
2023-12-20T19:48:36.009Z,1.50
2023-12-20T19:51:39.523Z,1.23
2023-12-20T19:54:44.418Z,1.10
2023-12-20T19:57:54.135Z,1.08
2023-12-20T20:00:58.547Z,1.88
2023-12-20T20:04:02.597Z,1.17
2023-12-20T20:07:10.578Z,1.25
2023-12-20T20:10:14.823Z,1.70
2023-12-20T20:13:21.572Z,1.35
2023-12-20T20:16:25.237Z,1.40
2023-12-20T20:19:29.414Z,1.60
2023-12-20T20:22:35.134Z,1.52
2023-12-20T20:25:39.124Z,1.30
2023-12-20T20:28:44.335Z,1.38
2023-12-20T20:31:47.974Z,1.27
2023-12-20T20:34:58.029Z,1.55
2023-12-20T20:38:01.834Z,0.90
2023-12-20T20:41:05.985Z,1.00
2023-12-20T20:44:13.518Z,1.10
2023-12-20T20:47:17.295Z,1.05
2023-12-20T20:50:20.948Z,2.47
2023-12-20T20:53:24.698Z,1.60
2023-12-20T20:56:28.391Z,1.58
2023-12-20T20:59:33.464Z,3.92
2023-12-20T21:02:36.972Z,4.63
2023-12-20T21:05:40.614Z,4.18
2023-12-20T21:08:44.469Z,2.22
2023-12-20T21:11:51.167Z,2.60
2023-12-20T21:15:24.200Z,2.72
2023-12-20T21:18:33.876Z,1.75
2023-12-20T21:21:41.008Z,1.77
2023-12-20T21:24:51.372Z,1.35
2023-12-20T21:27:58.610Z,1.50
2023-12-20T21:31:04.601Z,1.35
2023-12-20T21:34:11.285Z,1.50
2023-12-20T21:37:22.911Z,1.67
2023-12-20T21:40:40.552Z,1.20
2023-12-20T21:43:47.412Z,0.95
2023-12-20T21:47:00.254Z,1.42
2023-12-20T21:50:11.625Z,1.25
2023-12-20T21:53:16.074Z,1.33
2023-12-20T21:56:22.595Z,0.98
2023-12-20T21:59:30.024Z,0.80
2023-12-20T22:02:36.297Z,1.25
2023-12-20T22:05:41.246Z,1.30
2023-12-20T22:08:45.224Z,1.55
2023-12-20T22:11:49.433Z,0.80
2023-12-20T22:14:53.577Z,1.10
2023-12-20T22:17:59.169Z,1.25
2023-12-20T22:21:05.771Z,1.02
2023-12-20T22:24:09.923Z,1.25
2023-12-20T22:27:13.789Z,1.25
2023-12-20T22:30:19.781Z,1.05
2023-12-20T22:33:32.668Z,1.02
2023-12-20T22:36:38.518Z,1.10
2023-12-20T22:39:43.924Z,1.02
2023-12-20T22:42:54.782Z,1.10
2023-12-20T22:46:03.851Z,1.33
2023-12-20T22:49:09.563Z,1.00
2023-12-20T22:52:15.861Z,0.93
2023-12-20T22:55:20.201Z,0.95
2023-12-20T22:58:26.922Z,1.13
2023-12-20T23:01:32.013Z,1.17
2023-12-20T23:04:39.235Z,1.52
2023-12-20T23:07:50.473Z,1.35
2023-12-20T23:10:59.273Z,1.02
2023-12-20T23:14:10.539Z,1.15
2023-12-20T23:17:23.797Z,1.20
2023-12-20T23:20:33.243Z,1.50
2023-12-20T23:23:39.189Z,1.70
2023-12-20T23:26:43.985Z,1.40
2023-12-20T23:29:52.436Z,1.02
2023-12-20T23:32:59.690Z,1.15
2023-12-20T23:36:08.996Z,0.90
2023-12-20T23:39:13.388Z,0.82
2023-12-20T23:42:26.674Z,1.30
2023-12-20T23:45:36.160Z,1.23
2023-12-20T23:48:40.311Z,0.90
2023-12-20T23:51:49.201Z,1.00
2023-12-20T23:54:53.379Z,1.10
2023-12-20T23:57:58.392Z,1.20
